createdAt,value
2023-02-11T00:01:28.788Z,9.80
2023-02-11T00:05:30.966Z,9.57
2023-02-11T00:09:32.740Z,9.95
2023-02-11T00:13:34.511Z,9.55
2023-02-11T00:17:36.323Z,7.38
2023-02-11T00:21:38.109Z,5.63
2023-02-11T00:25:44.794Z,6.35
2023-02-11T00:33:48.656Z,8.75
2023-02-11T00:37:50.408Z,7.70
2023-02-11T00:41:52.238Z,7.75
2023-02-11T00:45:54.085Z,7.78
2023-02-11T00:49:55.886Z,6.40
2023-02-11T00:53:57.833Z,6.53
2023-02-11T00:58:00.159Z,6.22
2023-02-11T01:02:02.083Z,6.72
2023-02-11T01:06:04.539Z,6.18
2023-02-11T01:10:06.579Z,9.77
2023-02-11T01:14:08.394Z,6.50
2023-02-11T01:18:10.275Z,6.57
2023-02-11T01:22:12.047Z,6.70
2023-02-11T01:26:13.853Z,6.53
2023-02-11T01:30:15.607Z,6.93
2023-02-11T01:34:17.382Z,6.80
2023-02-11T01:38:25.399Z,7.30
2023-02-11T01:42:29.246Z,6.95
2023-02-11T01:46:36.150Z,6.50
2023-02-11T01:50:40.237Z,5.90
2023-02-11T01:55:04.753Z,5.82
2023-02-11T01:59:15.217Z,5.80
2023-02-11T02:03:22.644Z,7.40
2023-02-11T02:07:45.985Z,5.90
2023-02-11T02:11:48.042Z,8.18
2023-02-11T02:15:55.732Z,6.40
2023-02-11T02:20:46.330Z,6.18
2023-02-11T02:25:36.205Z,8.00
2023-02-11T02:29:50.351Z,6.65
2023-02-11T02:34:06.655Z,6.70
2023-02-11T02:38:11.924Z,6.30
2023-02-11T02:42:14.953Z,7.25
2023-02-11T02:46:28.672Z,6.45
2023-02-11T02:50:34.082Z,6.75
2023-02-11T02:54:40.619Z,9.18
2023-02-11T02:58:57.420Z,10.82
2023-02-11T03:03:08.851Z,8.27
2023-02-11T03:07:34.171Z,6.45
2023-02-11T03:11:37.839Z,8.80
2023-02-11T03:15:45.693Z,5.53
2023-02-11T03:19:50.707Z,8.18
2023-02-11T03:24:00.597Z,7.70
2023-02-11T03:28:02.350Z,7.75
2023-02-11T03:32:25.475Z,8.27
2023-02-11T03:36:38.110Z,9.10
2023-02-11T03:40:41.733Z,10.95
2023-02-11T03:44:53.791Z,8.95
2023-02-11T03:49:01.085Z,7.43
2023-02-11T03:53:04.473Z,6.72
2023-02-11T03:57:06.435Z,7.00
2023-02-11T04:01:09.941Z,7.47
2023-02-11T04:05:15.495Z,7.57
2023-02-11T04:09:17.671Z,5.75
2023-02-11T04:13:19.867Z,5.43
2023-02-11T04:17:22.191Z,6.90
2023-02-11T04:21:24.251Z,9.65
2023-02-11T04:25:26.444Z,8.65
2023-02-11T04:29:28.493Z,7.57
2023-02-11T04:33:30.548Z,7.28
2023-02-11T04:37:32.661Z,7.43
2023-02-11T04:41:34.765Z,9.23
2023-02-11T04:45:36.779Z,6.35
2023-02-11T04:49:39.259Z,8.10
2023-02-11T04:53:41.767Z,5.97
2023-02-11T04:57:43.953Z,8.32
2023-02-11T05:01:45.996Z,7.70
2023-02-11T05:05:48.020Z,8.55
2023-02-11T05:09:50.230Z,9.80
2023-02-11T05:13:52.692Z,7.57
2023-02-11T05:17:55.147Z,12.00
2023-02-11T05:22:03.125Z,10.30
2023-02-11T05:26:05.948Z,8.05
2023-02-11T05:30:08.759Z,7.97
2023-02-11T05:34:10.864Z,11.45
2023-02-11T05:38:12.856Z,8.35
2023-02-11T05:42:14.912Z,7.05
2023-02-11T05:46:18.052Z,6.32
2023-02-11T05:50:20.822Z,9.32
2023-02-11T05:54:27.318Z,6.32
2023-02-11T05:58:29.175Z,7.07
2023-02-11T06:02:31.005Z,9.02
2023-02-11T06:06:32.821Z,9.45
2023-02-11T06:10:34.628Z,11.57
2023-02-11T06:14:36.506Z,9.23
2023-02-11T06:18:38.324Z,6.43
2023-02-11T06:22:40.093Z,11.10
2023-02-11T06:26:41.893Z,7.85
2023-02-11T06:30:43.730Z,8.48
2023-02-11T06:34:46.153Z,8.38
2023-02-11T06:38:49.062Z,9.48
2023-02-11T06:42:50.821Z,9.55
2023-02-11T06:46:52.603Z,6.68
2023-02-11T06:50:54.365Z,12.13
2023-02-11T06:54:56.126Z,8.00
2023-02-11T06:58:57.972Z,7.82
2023-02-11T07:02:59.755Z,8.95
2023-02-11T07:07:01.727Z,8.45
2023-02-11T07:11:29.499Z,10.23
2023-02-11T07:15:31.515Z,12.63
2023-02-11T07:19:33.277Z,11.98
2023-02-11T07:23:36.241Z,9.02
2023-02-11T07:27:38.057Z,16.60
2023-02-11T07:31:40.061Z,13.85
2023-02-11T07:35:42.785Z,15.60
2023-02-11T07:39:44.580Z,12.57
2023-02-11T07:43:46.808Z,11.00
2023-02-11T07:47:48.582Z,12.13
2023-02-11T07:51:51.487Z,10.52
2023-02-11T07:55:53.451Z,10.73
2023-02-11T07:59:55.191Z,10.15
2023-02-11T08:03:58.510Z,10.82
2023-02-11T08:08:00.300Z,10.35
2023-02-11T08:12:02.479Z,10.82
2023-02-11T08:16:05.179Z,9.73
2023-02-11T08:20:07.331Z,9.90
2023-02-11T08:24:09.674Z,11.35
2023-02-11T08:28:11.463Z,11.88
2023-02-11T08:32:13.230Z,10.93
2023-02-11T08:36:21.733Z,12.43
2023-02-11T08:40:23.536Z,10.80
2023-02-11T08:44:25.681Z,22.63
2023-02-11T08:48:28.697Z,16.00
2023-02-11T08:52:30.472Z,19.77
2023-02-11T08:56:33.238Z,16.88
2023-02-11T09:00:35.003Z,17.92
2023-02-11T09:04:36.759Z,16.42
2023-02-11T09:08:40.899Z,15.60
2023-02-11T09:12:42.697Z,13.35
2023-02-11T09:16:44.523Z,15.70
2023-02-11T09:20:46.326Z,14.60
2023-02-11T09:24:48.076Z,13.90
2023-02-11T09:28:51.486Z,11.30
2023-02-11T09:32:53.250Z,13.02
2023-02-11T09:36:55.088Z,11.85
2023-02-11T09:40:57.239Z,10.23
2023-02-11T09:45:01.269Z,10.40
2023-02-11T09:49:05.038Z,10.15
2023-02-11T09:53:26.321Z,9.45
2023-02-11T09:57:36.252Z,9.43
2023-02-11T10:01:53.364Z,9.38
2023-02-11T10:06:07.206Z,10.50
2023-02-11T10:10:30.673Z,9.18
2023-02-11T10:14:56.315Z,15.75
2023-02-11T10:19:08.702Z,11.88
2023-02-11T10:23:17.564Z,12.80
2023-02-11T10:27:31.748Z,10.73
2023-02-11T10:31:41.948Z,13.25
2023-02-11T10:35:43.997Z,9.27
2023-02-11T10:39:45.774Z,12.85
2023-02-11T10:43:48.067Z,14.18
2023-02-11T10:47:49.863Z,16.60
2023-02-11T10:52:03.011Z,15.25
2023-02-11T10:56:07.289Z,14.93
2023-02-11T11:00:18.421Z,14.68
2023-02-11T11:04:23.099Z,15.52
2023-02-11T11:08:46.668Z,17.48
2023-02-11T11:12:49.472Z,13.07
2023-02-11T11:16:55.703Z,15.90
2023-02-11T11:21:03.071Z,14.63
2023-02-11T11:25:05.063Z,12.45
2023-02-11T11:29:16.284Z,14.38
2023-02-11T11:33:31.081Z,13.65
2023-02-11T11:37:36.262Z,10.35
2023-02-11T11:41:50.718Z,13.10
2023-02-11T11:45:55.673Z,10.45
2023-02-11T11:50:25.287Z,9.52
2023-02-11T11:54:29.104Z,12.65
2023-02-11T11:58:32.430Z,14.75
2023-02-11T12:02:58.570Z,13.35
2023-02-11T12:07:12.728Z,12.75
2023-02-11T12:11:39.192Z,12.00
2023-02-11T12:16:13.970Z,12.88
2023-02-11T12:20:47.057Z,12.10
2023-02-11T12:25:22.763Z,13.45
2023-02-11T12:29:48.548Z,15.07
2023-02-11T12:34:21.301Z,16.38
2023-02-11T12:38:35.639Z,15.05
2023-02-11T12:43:17.734Z,10.85
2023-02-11T12:47:25.208Z,14.35
2023-02-11T12:51:51.057Z,12.60
2023-02-11T12:56:00.688Z,12.13
2023-02-11T13:00:24.977Z,12.85
2023-02-11T13:04:34.084Z,11.73
2023-02-11T13:08:42.541Z,15.07
2023-02-11T13:13:08.115Z,16.60
2023-02-11T13:17:29.894Z,14.57
2023-02-11T13:22:02.595Z,13.13
2023-02-11T13:26:27.174Z,13.88
2023-02-11T13:30:34.410Z,14.20
2023-02-11T13:34:42.081Z,15.55
2023-02-11T13:39:06.234Z,12.68
2023-02-11T13:43:21.697Z,14.82
2023-02-11T13:47:30.278Z,14.52
2023-02-11T13:51:39.154Z,18.20
2023-02-11T13:55:44.929Z,17.48
2023-02-11T13:59:50.927Z,13.48
2023-02-11T14:04:40.787Z,18.30
2023-02-11T14:09:14.446Z,16.50
2023-02-11T14:13:29.380Z,17.70
2023-02-11T14:17:33.591Z,14.07
2023-02-11T14:21:42.153Z,12.60
2023-02-11T14:25:51.955Z,12.55
2023-02-11T14:30:08.789Z,14.88
2023-02-11T14:34:38.244Z,12.60
2023-02-11T14:38:44.857Z,11.13
2023-02-11T14:42:46.654Z,11.93
2023-02-11T14:46:52.562Z,15.18
2023-02-11T14:51:01.684Z,14.23
2023-02-11T14:55:26.697Z,14.48
2023-02-11T14:59:28.471Z,13.73
2023-02-11T15:03:35.146Z,14.32
2023-02-11T15:07:36.934Z,11.65
2023-02-11T15:11:41.376Z,13.32
2023-02-11T15:15:44.089Z,12.07
2023-02-11T15:19:49.932Z,11.93
2023-02-11T15:23:57.416Z,13.82
2023-02-11T15:27:59.337Z,9.65
2023-02-11T15:32:13.892Z,8.82
2023-02-11T15:36:16.841Z,9.68
2023-02-11T15:40:22.896Z,10.57
2023-02-11T15:44:29.706Z,15.10
2023-02-11T15:48:38.532Z,10.13
2023-02-11T15:52:41.824Z,8.30
2023-02-11T15:56:50.822Z,7.88
2023-02-11T16:00:59.815Z,9.57
2023-02-11T16:05:09.340Z,9.02
2023-02-11T16:09:11.185Z,8.18
2023-02-11T16:13:12.912Z,7.43
2023-02-11T16:17:28.875Z,8.38
2023-02-11T16:21:45.297Z,6.85
2023-02-11T16:25:47.132Z,8.52
2023-02-11T16:29:50.451Z,8.50
2023-02-11T16:33:52.197Z,9.52
2023-02-11T16:37:55.495Z,7.30
2023-02-11T16:41:58.385Z,6.75
2023-02-11T16:46:00.196Z,8.88
2023-02-11T16:50:02.627Z,10.43
2023-02-11T16:54:04.636Z,7.47
2023-02-11T16:58:06.560Z,8.30
2023-02-11T17:02:15.847Z,7.85
2023-02-11T17:06:17.688Z,7.25
2023-02-11T17:10:22.506Z,5.57
2023-02-11T17:14:24.679Z,7.65
2023-02-11T17:18:26.505Z,6.45
2023-02-11T17:22:28.256Z,6.88
2023-02-11T17:26:30.218Z,7.82
2023-02-11T17:30:32.291Z,8.30
2023-02-11T17:34:34.110Z,8.02
2023-02-11T17:38:37.750Z,9.13
2023-02-11T17:42:39.778Z,9.43
2023-02-11T17:46:41.662Z,7.53
2023-02-11T17:50:43.418Z,8.88
2023-02-11T17:54:45.357Z,7.60
2023-02-11T17:58:47.209Z,10.77
2023-02-11T18:02:48.972Z,9.50
2023-02-11T18:06:53.520Z,8.52
2023-02-11T18:10:55.427Z,7.35
2023-02-11T18:14:58.257Z,7.43
2023-02-11T18:19:00.103Z,11.63
2023-02-11T18:23:02.696Z,11.40
2023-02-11T18:27:04.445Z,9.77
2023-02-11T18:31:08.248Z,8.57
2023-02-11T18:35:15.190Z,9.50
2023-02-11T18:43:21.797Z,13.35
2023-02-11T18:47:23.575Z,12.32
2023-02-11T18:51:25.530Z,14.05
2023-02-11T18:55:27.508Z,13.18
2023-02-11T18:59:29.856Z,14.68
2023-02-11T19:03:31.629Z,10.98
2023-02-11T19:07:33.417Z,11.95
2023-02-11T19:11:48.840Z,9.77
2023-02-11T19:15:50.828Z,10.25
2023-02-11T19:19:53.256Z,9.30
2023-02-11T19:23:55.048Z,8.80
2023-02-11T19:27:56.854Z,7.47
2023-02-11T19:31:58.827Z,7.55
2023-02-11T19:36:05.948Z,7.70
2023-02-11T19:44:10.886Z,7.30
2023-02-11T19:48:12.928Z,7.28
2023-02-11T19:52:14.693Z,7.35
2023-02-11T19:56:18.146Z,7.93
2023-02-11T20:00:21.165Z,6.75
2023-02-11T20:04:25.168Z,6.53
2023-02-11T20:08:27.013Z,7.07
2023-02-11T20:12:28.916Z,7.00
2023-02-11T20:16:46.909Z,7.60
2023-02-11T20:20:49.895Z,6.47
2023-02-11T20:24:51.699Z,6.40
2023-02-11T20:28:54.909Z,7.47
2023-02-11T20:32:58.507Z,9.05
2023-02-11T20:37:00.624Z,8.75
2023-02-11T20:41:09.691Z,10.77
2023-02-11T20:45:11.527Z,12.23
2023-02-11T20:49:15.791Z,9.93
2023-02-11T20:53:17.575Z,9.45
2023-02-11T20:57:19.359Z,9.48
2023-02-11T21:01:25.065Z,10.07
2023-02-11T21:05:27.094Z,9.40
2023-02-11T21:09:31.662Z,9.15
2023-02-11T21:13:34.313Z,8.85
2023-02-11T21:17:36.104Z,7.97
2023-02-11T21:21:38.698Z,7.75
2023-02-11T21:25:40.491Z,8.15
2023-02-11T21:29:53.466Z,8.43
2023-02-11T21:33:57.281Z,12.95
2023-02-11T21:37:59.108Z,9.77
2023-02-11T21:42:00.922Z,19.27
2023-02-11T21:46:11.144Z,17.58
2023-02-11T21:50:13.042Z,16.73
2023-02-11T21:54:14.873Z,19.05
2023-02-11T21:58:16.959Z,15.07
2023-02-11T22:02:18.739Z,12.20
2023-02-11T22:06:23.653Z,11.50
2023-02-11T22:10:25.500Z,10.98
2023-02-11T22:14:27.428Z,11.93
2023-02-11T22:18:30.416Z,12.68
2023-02-11T22:22:32.189Z,11.57
2023-02-11T22:26:33.965Z,9.23
2023-02-11T22:30:36.021Z,13.98
2023-02-11T22:34:37.949Z,14.25
2023-02-11T22:38:39.757Z,12.15
2023-02-11T22:42:41.512Z,9.77
2023-02-11T22:46:43.835Z,8.18
2023-02-11T22:50:45.570Z,9.23
2023-02-11T22:54:50.927Z,9.00
2023-02-11T22:58:56.086Z,8.60
2023-02-11T23:02:57.944Z,10.02
2023-02-11T23:07:00.103Z,9.73
2023-02-11T23:11:17.506Z,8.45
2023-02-11T23:15:19.396Z,6.57
2023-02-11T23:19:21.195Z,6.03
2023-02-11T23:23:22.953Z,8.27
2023-02-11T23:27:24.716Z,5.43
2023-02-11T23:31:37.492Z,7.53
2023-02-11T23:35:39.405Z,8.80
2023-02-11T23:39:41.244Z,10.73
2023-02-11T23:43:43.771Z,8.18
2023-02-11T23:47:45.834Z,9.85
2023-02-11T23:51:47.630Z,8.88
2023-02-11T23:55:49.409Z,10.90
2023-02-11T23:59:51.335Z,11.52
